Airfield :
LOGIN :

Register | Disclaimer

   EN    FR    IT 

 










Legend :    VFR   Marginal VFR   IFR   Intensive IFR   Very Intensive IFR
Visi :
Ceiling :
>= 8 km
>= 3000ft
5 to 8 km
1000 to 3000 ft
1500m to 5 km
500 to 1000 ft
800 to 1500m
200 to 500 ft
< 800m
< 200 ft
Symbols :   Thunderstorms  Fog  Heavy snow  Heavy precipitations  Wind > 20 kt
SIGMETs :     Misc.  Thunderstorms  Icing  Turbulence  Mountain Waves  Volcanic Ashes







- Airport Elevation : 231 ft
- IATA code : WTN


EGXW - RAF Waddington

CURRENT METAR :
  • 171050Z 21009KT 9999 -RA BKN050 BKN100 03/01 Q1020 BLU

EXPIRED METARs :
  • 170950Z 21010KT CAVOK 02/01 Q1020 BLU
  • 170850Z 21010KT CAVOK 02/01 Q1021 BLU

TAF TAF EGXW
Valid from the 17 at 12:00 until the 18 at 06:00 UTC


171031Z 1712/1806 22015KT 9999 BKN025
BECMG 1712/1715 BKN007
TEMPO 1712/1718 23016G26KT 6000 RA BKN004
PROB30
TEMPO 1714/1717 3000 RADZ
BECMG 1718/1720 31012KT FEW040
No reported NOTAMs for that airfield.



MET'MAP, your aeronautical weather chart ! - Copyright ORBIFLY December 2007 - Disclaimer

ORBIFLY MET'MAP TEAM :

Programming & Development : Alexandra Zaïnal
Concept & Development : Baudouin d'Aumeries
Co-Development & Prog : Marc-Olivier Méhu
Technical & hardware support : Manuel Goepfert

Contact : metmap@orbifly.com




SOURCES & CREDITS :

   NOAA